createdAt,value
2018-12-08T00:02:09.033Z,43.96
2018-12-08T00:04:36.150Z,43.94
2018-12-08T00:07:02.096Z,44.74
2018-12-08T00:09:28.088Z,44.63
2018-12-08T00:11:54.043Z,44.21
2018-12-08T00:14:20.043Z,44.64
2018-12-08T00:16:46.027Z,44.81
2018-12-08T00:21:44.471Z,43.78
2018-12-08T00:24:10.452Z,44.03
2018-12-08T00:26:36.473Z,44.22
2018-12-08T00:29:02.463Z,44.42
2018-12-08T00:31:28.453Z,47.48
2018-12-08T00:33:54.402Z,52.05
2018-12-08T00:36:20.387Z,51.45
2018-12-08T00:38:46.383Z,49.99
2018-12-08T00:41:12.343Z,49.64
2018-12-08T00:43:38.308Z,50.16
2018-12-08T00:46:04.316Z,49.12
2018-12-08T00:48:30.280Z,50.79
2018-12-08T00:50:56.952Z,49.56
2018-12-08T00:53:22.935Z,49.18
2018-12-08T00:55:48.943Z,47.81
2018-12-08T00:58:14.905Z,47.24
2018-12-08T01:00:40.884Z,46.98
2018-12-08T01:05:39.348Z,46.50
2018-12-08T01:08:05.293Z,45.88
2018-12-08T01:10:31.744Z,46.13
2018-12-08T01:12:57.764Z,45.97
2018-12-08T01:15:23.743Z,45.56
2018-12-08T01:17:50.396Z,46.12
2018-12-08T01:20:16.368Z,46.17
2018-12-08T01:22:42.305Z,46.21
2018-12-08T01:25:08.287Z,44.39
2018-12-08T01:27:34.244Z,44.12
2018-12-08T01:30:00.238Z,44.52
2018-12-08T01:32:26.197Z,45.42
2018-12-08T01:34:52.210Z,44.29
2018-12-08T01:37:18.161Z,43.75
2018-12-08T01:39:44.116Z,43.81
2018-12-08T01:42:10.107Z,44.66
2018-12-08T01:44:36.064Z,45.11
2018-12-08T01:47:02.020Z,45.66
2018-12-08T01:49:28.003Z,44.58
2018-12-08T01:51:53.984Z,44.48
2018-12-08T01:54:20.021Z,44.71
2018-12-08T01:56:45.998Z,44.14
2018-12-08T01:59:11.968Z,43.95
2018-12-08T02:01:37.936Z,44.60
2018-12-08T02:04:03.897Z,44.29
2018-12-08T02:06:29.885Z,44.45
2018-12-08T02:08:55.851Z,44.06
2018-12-08T02:11:25.027Z,44.21
2018-12-08T02:13:49.841Z,43.45
2018-12-08T02:16:15.812Z,43.75
2018-12-08T02:18:41.785Z,43.57
2018-12-08T02:21:07.760Z,43.38
2018-12-08T02:23:33.704Z,44.09
2018-12-08T02:25:59.703Z,44.11
2018-12-08T02:28:25.663Z,43.81
2018-12-08T02:30:51.621Z,43.63
2018-12-08T02:33:17.578Z,44.68
2018-12-08T02:35:43.556Z,44.19
2018-12-08T02:38:09.491Z,44.58
2018-12-08T02:40:35.781Z,43.41
2018-12-08T02:43:01.747Z,43.78
2018-12-08T02:45:27.770Z,44.42
2018-12-08T02:47:53.729Z,44.88
2018-12-08T02:50:19.687Z,44.94
2018-12-08T02:52:45.732Z,44.11
2018-12-08T02:55:11.685Z,43.78
2018-12-08T02:57:37.651Z,43.94
2018-12-08T03:00:03.656Z,44.44
2018-12-08T03:02:29.656Z,44.89
2018-12-08T03:04:55.602Z,45.42
2018-12-08T03:07:21.568Z,44.94
2018-12-08T03:09:47.524Z,44.99
2018-12-08T03:12:13.488Z,44.46
2018-12-08T03:14:40.742Z,44.86
2018-12-08T03:17:06.727Z,44.83
2018-12-08T03:19:32.684Z,44.69
2018-12-08T03:21:58.636Z,44.80
2018-12-08T03:24:24.596Z,44.68
2018-12-08T03:26:50.575Z,45.08
2018-12-08T03:29:16.555Z,45.00
2018-12-08T03:31:42.520Z,44.63
2018-12-08T03:34:08.461Z,44.27
2018-12-08T03:36:34.431Z,43.91
2018-12-08T03:39:00.407Z,44.51
2018-12-08T03:41:26.412Z,44.97
2018-12-08T03:43:52.370Z,45.14
2018-12-08T03:46:18.360Z,44.97
2018-12-08T03:48:44.333Z,43.86
2018-12-08T03:51:10.340Z,44.03
2018-12-08T03:53:36.295Z,44.14
2018-12-08T03:56:02.265Z,44.61
2018-12-08T03:58:28.277Z,44.53
2018-12-08T04:00:54.261Z,44.55
2018-12-08T04:03:20.215Z,44.80
2018-12-08T04:05:46.177Z,44.47
2018-12-08T04:08:12.143Z,44.05
2018-12-08T04:10:38.092Z,44.13
2018-12-08T04:13:04.036Z,44.35
2018-12-08T04:15:31.086Z,43.92
2018-12-08T04:17:57.111Z,43.14
2018-12-08T04:20:23.080Z,43.37
2018-12-08T04:22:49.052Z,43.65
2018-12-08T04:25:15.013Z,43.94
2018-12-08T04:27:41.005Z,43.62
2018-12-08T04:30:06.952Z,43.29
2018-12-08T04:32:32.932Z,42.87
2018-12-08T04:34:58.910Z,43.74
2018-12-08T04:37:24.884Z,43.16
2018-12-08T04:39:50.837Z,43.44
2018-12-08T04:42:16.821Z,42.94
2018-12-08T04:44:42.765Z,43.47
2018-12-08T04:47:08.739Z,43.28
2018-12-08T04:49:34.711Z,42.78
2018-12-08T04:52:00.709Z,42.75
2018-12-08T04:54:26.683Z,42.43
2018-12-08T04:56:52.661Z,41.69
2018-12-08T04:59:18.628Z,42.43
2018-12-08T05:01:44.620Z,42.87
2018-12-08T05:04:10.602Z,43.05
2018-12-08T05:06:36.587Z,42.35
2018-12-08T05:09:02.570Z,42.10
2018-12-08T05:11:28.541Z,42.20
2018-12-08T05:13:54.535Z,42.71
2018-12-08T05:16:20.487Z,41.84
2018-12-08T05:18:46.449Z,42.12
2018-12-08T05:21:12.420Z,41.88
2018-12-08T05:23:38.395Z,42.27
2018-12-08T05:26:04.351Z,42.53
2018-12-08T05:28:30.334Z,41.83
2018-12-08T05:30:57.008Z,41.63
2018-12-08T05:33:23.000Z,41.71
2018-12-08T05:35:48.977Z,41.79
2018-12-08T05:38:14.955Z,41.81
2018-12-08T05:40:40.918Z,40.79
2018-12-08T05:43:06.892Z,41.24
2018-12-08T05:45:32.887Z,40.61
2018-12-08T05:47:58.864Z,40.98
2018-12-08T05:50:24.820Z,40.67
2018-12-08T05:52:50.816Z,40.70
2018-12-08T05:55:16.810Z,40.61
2018-12-08T05:57:42.816Z,41.15
2018-12-08T06:00:08.773Z,41.21
2018-12-08T06:02:34.764Z,41.72
2018-12-08T06:05:00.731Z,41.19
2018-12-08T06:07:26.710Z,41.35
2018-12-08T06:09:52.673Z,40.89
2018-12-08T06:12:18.651Z,41.54
2018-12-08T06:14:44.647Z,41.18
2018-12-08T06:17:10.598Z,41.13
2018-12-08T06:19:36.558Z,41.26
2018-12-08T06:22:02.523Z,41.27
2018-12-08T06:24:28.488Z,41.09
2018-12-08T06:26:54.459Z,40.87
2018-12-08T06:29:20.410Z,40.94
2018-12-08T06:31:46.368Z,40.89
2018-12-08T06:34:12.307Z,40.75
2018-12-08T06:36:38.248Z,40.52
2018-12-08T06:39:04.193Z,40.42
2018-12-08T06:41:30.146Z,41.07
2018-12-08T06:43:56.109Z,40.54
2018-12-08T06:46:22.060Z,40.93
2018-12-08T06:48:48.021Z,41.18
2018-12-08T06:51:14.034Z,39.83
2018-12-08T06:53:40.008Z,40.73
2018-12-08T06:56:05.963Z,40.60
2018-12-08T06:58:31.955Z,41.16
2018-12-08T07:00:57.946Z,41.55
2018-12-08T07:03:23.955Z,40.68
2018-12-08T07:05:49.972Z,40.32
2018-12-08T07:13:20.217Z,41.04
2018-12-08T07:15:46.177Z,44.17
2018-12-08T07:18:12.173Z,42.68
2018-12-08T07:25:43.880Z,42.75
2018-12-08T07:28:09.821Z,42.36
2018-12-08T07:30:35.785Z,41.38
2018-12-08T07:33:01.772Z,41.69
2018-12-08T07:35:27.852Z,40.92
2018-12-08T07:40:26.349Z,41.49
2018-12-08T07:42:52.347Z,41.16
2018-12-08T07:45:18.373Z,41.70
2018-12-08T07:47:44.348Z,41.42
2018-12-08T07:50:10.355Z,41.56
2018-12-08T07:52:37.018Z,40.65
2018-12-08T07:55:03.020Z,40.85
2018-12-08T07:57:28.960Z,40.47
2018-12-08T08:02:26.137Z,40.21
2018-12-08T08:04:52.342Z,40.26
2018-12-08T08:07:18.397Z,40.56
2018-12-08T08:09:44.384Z,40.35
2018-12-08T08:12:10.361Z,40.00
2018-12-08T08:14:36.474Z,39.23
2018-12-08T08:17:02.578Z,38.61
2018-12-08T08:19:28.624Z,40.10
2018-12-08T08:21:54.716Z,39.94
2018-12-08T08:24:20.755Z,39.33
2018-12-08T08:26:47.851Z,39.16
2018-12-08T08:31:45.804Z,39.60
2018-12-08T08:34:11.806Z,39.22
2018-12-08T08:36:37.803Z,38.92
2018-12-08T08:39:04.017Z,39.41
2018-12-08T08:41:30.000Z,39.09
2018-12-08T08:43:56.283Z,39.22
2018-12-08T08:46:23.063Z,38.82
2018-12-08T08:48:49.104Z,40.09
2018-12-08T08:51:15.113Z,38.70
2018-12-08T08:53:41.061Z,39.54
2018-12-08T08:56:07.255Z,39.03
2018-12-08T08:58:33.252Z,39.72
2018-12-08T09:01:01.245Z,38.66
2018-12-08T09:03:27.206Z,39.14
2018-12-08T09:05:53.382Z,38.51
2018-12-08T09:08:20.096Z,38.38
2018-12-08T09:10:46.203Z,37.55
2018-12-08T09:13:12.168Z,38.01
2018-12-08T09:15:38.124Z,38.35
2018-12-08T09:18:04.097Z,37.48
2018-12-08T09:20:30.093Z,38.11
2018-12-08T09:22:56.070Z,37.77
2018-12-08T09:25:22.041Z,37.77
2018-12-08T09:27:49.224Z,37.47
2018-12-08T09:30:15.518Z,37.19
2018-12-08T09:32:43.550Z,37.02
2018-12-08T09:35:09.542Z,37.88
2018-12-08T09:37:35.494Z,37.69
2018-12-08T09:40:02.559Z,38.32
2018-12-08T09:42:28.504Z,38.50
2018-12-08T09:44:56.555Z,38.30
2018-12-08T09:47:22.524Z,37.90
2018-12-08T09:49:48.494Z,38.00
2018-12-08T09:52:14.453Z,37.84
2018-12-08T09:59:43.666Z,38.87
2018-12-08T10:02:09.646Z,38.53
2018-12-08T10:04:35.616Z,38.22
2018-12-08T10:07:01.650Z,39.85
2018-12-08T10:09:27.632Z,38.78
2018-12-08T10:11:53.584Z,39.13
2018-12-08T10:14:19.545Z,38.92
2018-12-08T10:16:45.543Z,38.48
2018-12-08T10:19:11.581Z,38.92
2018-12-08T10:21:37.620Z,39.29
2018-12-08T10:24:03.596Z,38.62
2018-12-08T10:26:29.564Z,38.77
2018-12-08T10:28:55.806Z,39.09
2018-12-08T10:31:21.779Z,38.51
2018-12-08T10:33:49.804Z,38.58
2018-12-08T10:36:15.777Z,38.08
2018-12-08T10:38:41.776Z,39.10
2018-12-08T10:41:07.745Z,37.69
2018-12-08T10:43:33.721Z,38.66
2018-12-08T10:45:59.703Z,38.34
2018-12-08T10:48:25.649Z,39.23
2018-12-08T10:50:51.638Z,38.53
2018-12-08T10:53:17.600Z,38.65
2018-12-08T10:55:43.586Z,39.01
2018-12-08T10:58:09.553Z,39.23
2018-12-08T11:00:35.620Z,38.90
2018-12-08T11:03:01.565Z,39.05
2018-12-08T11:05:30.764Z,39.01
2018-12-08T11:07:56.746Z,38.11
2018-12-08T11:10:22.772Z,37.88
2018-12-08T11:12:48.735Z,38.44
2018-12-08T11:15:14.672Z,38.36
2018-12-08T11:17:40.625Z,38.08
2018-12-08T11:20:06.622Z,37.76
2018-12-08T11:22:32.588Z,39.18
2018-12-08T11:27:30.341Z,38.27
2018-12-08T11:30:00.867Z,37.60
2018-12-08T11:32:26.847Z,37.62
2018-12-08T11:42:27.437Z,37.85
2018-12-08T11:44:53.483Z,39.90
2018-12-08T11:47:19.511Z,38.60
2018-12-08T11:49:45.464Z,37.74
2018-12-08T11:52:11.436Z,37.56
2018-12-08T11:54:37.539Z,40.15
2018-12-08T11:57:03.499Z,38.90
2018-12-08T12:02:06.062Z,39.28
2018-12-08T12:04:32.133Z,38.47
2018-12-08T12:06:58.116Z,38.79
2018-12-08T12:09:24.095Z,39.18
2018-12-08T12:11:50.045Z,37.97
2018-12-08T12:14:15.990Z,39.19
2018-12-08T12:21:45.447Z,38.75
2018-12-08T12:24:11.398Z,37.83
2018-12-08T12:26:37.414Z,38.21
2018-12-08T12:29:03.368Z,37.70
2018-12-08T12:31:29.349Z,37.41
2018-12-08T12:33:55.292Z,38.37
2018-12-08T12:36:21.244Z,38.18
2018-12-08T12:38:47.207Z,38.15
2018-12-08T12:41:13.193Z,37.53
2018-12-08T12:43:39.147Z,38.66
2018-12-08T12:46:05.138Z,38.45
2018-12-08T12:48:31.115Z,38.01
2018-12-08T12:50:57.115Z,38.52
2018-12-08T12:53:23.099Z,38.68
2018-12-08T12:55:49.049Z,38.15
2018-12-08T12:58:14.996Z,38.70
2018-12-08T13:00:40.962Z,38.45
2018-12-08T13:03:06.922Z,38.44
2018-12-08T13:05:32.874Z,37.79
2018-12-08T13:07:58.833Z,38.45
2018-12-08T13:10:24.772Z,38.17
2018-12-08T13:12:50.778Z,38.70
2018-12-08T13:15:16.851Z,38.33
2018-12-08T13:17:42.916Z,37.84
2018-12-08T13:20:08.869Z,38.19
2018-12-08T13:22:34.873Z,38.77
2018-12-08T13:25:00.824Z,38.09
2018-12-08T13:27:26.772Z,38.46
2018-12-08T13:29:52.720Z,40.28
2018-12-08T13:32:18.696Z,39.70
2018-12-08T13:34:44.643Z,38.92
2018-12-08T13:37:10.639Z,39.30
2018-12-08T13:39:36.586Z,38.81
2018-12-08T13:42:02.548Z,39.21
2018-12-08T13:44:28.521Z,39.89
2018-12-08T13:46:54.490Z,39.55
2018-12-08T13:49:20.495Z,39.40
2018-12-08T13:51:46.518Z,39.32
2018-12-08T13:54:12.480Z,39.17
2018-12-08T13:56:38.482Z,38.92
2018-12-08T13:59:04.452Z,38.74
2018-12-08T14:01:30.417Z,39.80
2018-12-08T14:03:56.358Z,39.90
2018-12-08T14:06:23.341Z,39.54
2018-12-08T14:08:49.263Z,39.94
2018-12-08T14:11:15.208Z,39.28
2018-12-08T14:13:41.161Z,38.92
2018-12-08T14:16:07.124Z,38.34
2018-12-08T14:18:33.097Z,38.71
2018-12-08T14:20:59.072Z,38.68
2018-12-08T14:23:25.061Z,39.15
2018-12-08T14:25:51.028Z,39.18
2018-12-08T14:28:16.972Z,39.35
2018-12-08T14:30:42.932Z,39.05
2018-12-08T14:33:08.892Z,39.46
2018-12-08T14:35:34.851Z,39.54
2018-12-08T14:38:00.831Z,40.05
2018-12-08T14:40:26.773Z,39.94
2018-12-08T14:42:52.740Z,41.33
2018-12-08T14:45:18.669Z,42.47
2018-12-08T14:47:44.647Z,42.05
2018-12-08T14:50:10.625Z,42.02
2018-12-08T14:52:36.620Z,40.92
2018-12-08T14:55:02.563Z,42.04
2018-12-08T14:57:28.580Z,41.90
2018-12-08T14:59:54.516Z,41.67
2018-12-08T15:02:20.506Z,41.69
2018-12-08T15:04:46.463Z,41.47
2018-12-08T15:07:12.454Z,42.88
2018-12-08T15:09:38.420Z,42.76
2018-12-08T15:12:04.385Z,43.25
2018-12-08T15:14:30.328Z,44.68
2018-12-08T15:16:56.288Z,45.26
2018-12-08T15:19:22.297Z,44.51
2018-12-08T15:21:48.249Z,44.93
2018-12-08T15:24:14.215Z,45.13
2018-12-08T15:26:40.177Z,46.23
2018-12-08T15:29:06.147Z,45.09
2018-12-08T15:31:32.117Z,45.71
2018-12-08T15:33:58.068Z,46.24
2018-12-08T15:36:24.006Z,46.49
2018-12-08T15:38:49.944Z,46.63
2018-12-08T15:41:15.917Z,46.78
2018-12-08T15:43:41.891Z,47.91
2018-12-08T15:46:07.865Z,47.58
2018-12-08T15:48:33.835Z,47.20
2018-12-08T15:50:59.831Z,46.03
2018-12-08T16:06:03.355Z,45.66
2018-12-08T16:08:29.333Z,46.38
2018-12-08T16:10:55.286Z,46.46
2018-12-08T16:13:21.268Z,46.66
2018-12-08T16:15:47.230Z,46.20
2018-12-08T16:18:13.186Z,47.22
2018-12-08T16:20:39.169Z,46.00
2018-12-08T16:23:05.173Z,46.35
2018-12-08T16:25:31.147Z,45.71
2018-12-08T16:27:57.146Z,45.89
2018-12-08T16:30:23.098Z,46.04
2018-12-08T16:32:49.057Z,46.15
2018-12-08T16:35:15.006Z,45.10
2018-12-08T16:37:41.002Z,46.45
2018-12-08T16:40:06.946Z,45.22
2018-12-08T16:42:32.913Z,45.08
2018-12-08T16:44:58.861Z,44.89
2018-12-08T16:47:24.827Z,44.49
2018-12-08T16:49:50.816Z,44.50
2018-12-08T16:52:16.779Z,45.13
2018-12-08T16:54:42.721Z,45.46
2018-12-08T16:57:08.676Z,44.48
2018-12-08T16:59:34.637Z,45.11
2018-12-08T17:02:00.604Z,44.71
2018-12-08T17:04:26.558Z,43.97
2018-12-08T17:06:52.512Z,44.39
2018-12-08T17:09:18.471Z,44.92
2018-12-08T17:11:44.469Z,43.73
2018-12-08T17:14:10.432Z,43.80
2018-12-08T17:16:36.374Z,44.05
2018-12-08T17:19:05.452Z,44.28
2018-12-08T17:21:31.895Z,43.78
2018-12-08T17:23:57.843Z,44.04
2018-12-08T17:26:23.784Z,44.31
2018-12-08T17:28:49.732Z,44.42
2018-12-08T17:31:15.697Z,44.21
2018-12-08T17:33:41.683Z,43.98
2018-12-08T17:36:08.691Z,43.50
2018-12-08T17:38:34.736Z,43.00
2018-12-08T17:43:34.428Z,43.61
2018-12-08T17:46:00.361Z,44.29
2018-12-08T17:48:26.336Z,43.31
2018-12-08T17:50:52.288Z,43.29
2018-12-08T17:53:18.237Z,44.06
2018-12-08T17:55:44.199Z,43.95
2018-12-08T17:58:10.364Z,44.56
2018-12-08T18:00:38.353Z,43.60
2018-12-08T18:03:04.337Z,43.40
2018-12-08T18:05:30.316Z,44.16
2018-12-08T18:07:56.301Z,44.58
2018-12-08T18:10:22.236Z,44.31
2018-12-08T18:12:48.206Z,44.40
2018-12-08T18:15:14.172Z,43.33
2018-12-08T18:17:40.143Z,43.36
2018-12-08T18:20:06.096Z,43.96
2018-12-08T18:22:32.081Z,43.35
2018-12-08T18:24:58.177Z,44.06
2018-12-08T18:27:24.117Z,43.77
2018-12-08T18:29:50.071Z,43.69
2018-12-08T18:32:16.052Z,44.42
2018-12-08T18:34:42.029Z,44.61
2018-12-08T18:37:07.974Z,43.99
2018-12-08T18:39:33.918Z,44.44
2018-12-08T18:42:00.883Z,44.26
2018-12-08T18:44:31.272Z,43.79
2018-12-08T18:46:57.221Z,44.92
2018-12-08T18:49:23.188Z,44.77
2018-12-08T18:51:49.136Z,44.06
2018-12-08T18:54:15.289Z,43.68
2018-12-08T18:56:41.278Z,43.44
2018-12-08T18:59:07.256Z,43.58
2018-12-08T19:01:33.215Z,43.26
2018-12-08T19:03:59.204Z,43.26
2018-12-08T19:06:25.155Z,43.14
2018-12-08T19:08:51.206Z,44.11
2018-12-08T19:11:17.204Z,43.87
2018-12-08T19:13:43.142Z,43.06
2018-12-08T19:16:09.088Z,42.86
2018-12-08T19:18:35.097Z,42.91
2018-12-08T19:21:01.065Z,42.56
2018-12-08T19:23:27.897Z,43.68
2018-12-08T19:25:53.883Z,44.48
2018-12-08T19:28:21.501Z,43.68
2018-12-08T19:30:52.278Z,43.85
2018-12-08T19:33:18.224Z,43.38
2018-12-08T19:35:46.250Z,43.81
2018-12-08T19:38:12.202Z,43.94
2018-12-08T19:40:38.164Z,42.83
2018-12-08T19:43:04.109Z,43.20
2018-12-08T19:45:30.047Z,42.94
2018-12-08T19:47:56.003Z,43.65
2018-12-08T19:50:21.979Z,43.77
2018-12-08T19:52:47.916Z,42.93
2018-12-08T19:55:14.788Z,43.09
2018-12-08T19:57:40.741Z,43.35
2018-12-08T20:00:06.692Z,42.85
2018-12-08T20:02:32.655Z,43.05
2018-12-08T20:04:59.456Z,43.22
2018-12-08T20:07:25.443Z,43.62
2018-12-08T20:09:51.457Z,43.19
2018-12-08T20:12:18.637Z,42.60
2018-12-08T20:14:44.928Z,43.08
2018-12-08T20:17:10.945Z,42.39
2018-12-08T20:19:36.991Z,43.04
2018-12-08T20:22:02.932Z,42.76
2018-12-08T20:24:28.902Z,43.20
2018-12-08T20:26:54.878Z,42.93
2018-12-08T20:29:20.850Z,42.79
2018-12-08T20:31:46.849Z,42.42
2018-12-08T20:34:12.793Z,42.33
2018-12-08T20:36:38.804Z,42.71
2018-12-08T20:39:04.775Z,42.11
2018-12-08T20:44:03.042Z,41.96
2018-12-08T20:46:29.013Z,41.23
2018-12-08T20:48:54.982Z,41.95
2018-12-08T20:51:20.957Z,41.54
2018-12-08T20:53:46.900Z,42.05
2018-12-08T20:56:12.993Z,41.58
2018-12-08T20:58:39.945Z,42.00
2018-12-08T21:01:05.887Z,42.25
2018-12-08T21:03:31.851Z,42.40
2018-12-08T21:05:57.792Z,41.62
2018-12-08T21:08:23.755Z,41.63
2018-12-08T21:10:49.743Z,42.33
2018-12-08T21:13:15.728Z,41.73
2018-12-08T21:15:43.815Z,42.20
2018-12-08T21:18:09.798Z,42.35
2018-12-08T21:20:35.788Z,41.98
2018-12-08T21:23:01.751Z,41.88
2018-12-08T21:25:27.742Z,41.90
2018-12-08T21:27:53.743Z,42.48
2018-12-08T21:30:19.682Z,42.12
2018-12-08T21:32:45.632Z,41.93
2018-12-08T21:35:11.582Z,41.74
2018-12-08T21:37:37.524Z,42.34
2018-12-08T21:40:05.021Z,41.67
2018-12-08T21:42:31.009Z,42.19
2018-12-08T21:45:01.829Z,42.45
2018-12-08T21:47:27.808Z,43.06
2018-12-08T21:49:53.759Z,42.53
2018-12-08T21:52:19.715Z,42.69
2018-12-08T21:54:45.711Z,42.68
2018-12-08T21:57:11.726Z,41.98
2018-12-08T22:04:40.380Z,42.52
2018-12-08T22:07:06.319Z,42.06
2018-12-08T22:09:32.962Z,42.53
2018-12-08T22:11:58.941Z,41.80
2018-12-08T22:14:24.973Z,42.82
2018-12-08T22:16:51.006Z,42.17
2018-12-08T22:19:17.162Z,41.96
2018-12-08T22:21:43.280Z,41.63
2018-12-08T22:24:09.236Z,41.83
2018-12-08T22:26:35.215Z,42.55
2018-12-08T22:29:01.283Z,42.19
2018-12-08T22:33:59.925Z,42.08
2018-12-08T22:36:25.942Z,42.19
2018-12-08T22:38:51.919Z,42.07
2018-12-08T22:41:17.926Z,41.69
2018-12-08T22:43:43.869Z,42.22
2018-12-08T22:46:09.859Z,42.53
2018-12-08T22:48:35.822Z,42.33
2018-12-08T22:51:02.742Z,42.42
2018-12-08T22:53:28.704Z,42.26
2018-12-08T22:55:54.641Z,42.75
2018-12-08T22:58:20.600Z,42.33
2018-12-08T23:00:46.543Z,42.85
2018-12-08T23:03:12.489Z,42.24
2018-12-08T23:05:38.428Z,41.82
2018-12-08T23:08:04.368Z,42.69
2018-12-08T23:10:30.302Z,42.63
2018-12-08T23:12:56.274Z,42.34
2018-12-08T23:15:22.251Z,42.07
2018-12-08T23:17:48.232Z,42.48
2018-12-08T23:20:14.180Z,41.65
2018-12-08T23:22:40.148Z,42.82
2018-12-08T23:25:06.087Z,41.85
2018-12-08T23:27:32.035Z,42.16
2018-12-08T23:29:57.979Z,42.61
2018-12-08T23:32:23.932Z,43.15
2018-12-08T23:34:49.869Z,42.85
2018-12-08T23:37:15.808Z,42.26
2018-12-08T23:39:41.771Z,42.17
2018-12-08T23:42:07.727Z,42.10
2018-12-08T23:44:33.680Z,42.22
2018-12-08T23:46:59.706Z,42.64
2018-12-08T23:49:25.646Z,42.17
2018-12-08T23:51:51.593Z,41.68
2018-12-08T23:54:17.546Z,41.89
2018-12-08T23:56:43.505Z,41.87
2018-12-08T23:59:09.468Z,41.54
